Time;durP1;ratioP1;P1;durP2;ratioP2;P2;SDS_P1;SDS_P2;PMS_P1;PMS_P2;Temp;Humidity;BMP_temperature;BMP_pressure;BME280_temperature;BME280_humidity;BME280_pressure;Samples;Min_cycle;Max_cycle;Signal;HPM_P1;HPM_P2
2022/11/04 00:01:39;;;;;;;1.60;1.20;;;12.40;99.90;;;;;;5082307;28;20978;-38
2022/11/04 00:04:05;;;;;;;1.83;1.40;;;12.30;99.90;;;;;;5075544;28;20426;-38
2022/11/04 00:06:30;;;;;;;1.67;1.40;;;12.30;99.90;;;;;;5069822;28;20419;-38
2022/11/04 00:08:58;;;;;;;2.27;1.63;;;12.30;99.90;;;;;;5074873;28;20543;-38
2022/11/04 00:14:09;;;;;;;1.60;1.17;;;12.30;99.90;;;;;;5069540;28;20797;-38
2022/11/04 00:19:20;;;;;;;1.33;1.23;;;12.30;99.90;;;;;;5068932;28;20463;-38
2022/11/04 00:30:02;;;;;;;2.13;1.10;;;12.10;99.90;;;;;;5069338;28;20431;-38
2022/11/04 00:35:13;;;;;;;1.87;1.43;;;12.00;99.90;;;;;;5069550;28;20458;-38
2022/11/04 00:37:40;;;;;;;1.70;1.33;;;12.00;99.90;;;;;;5069430;28;20466;-38
2022/11/04 00:40:08;;;;;;;1.43;1.00;;;12.00;99.90;;;;;;5073535;28;20431;-38
2022/11/04 00:42:33;;;;;;;1.23;1.13;;;12.00;99.90;;;;;;5079110;28;20423;-38
2022/11/04 00:44:59;;;;;;;1.20;1.10;;;11.90;99.90;;;;;;5069530;28;20970;-38
2022/11/04 00:47:25;;;;;;;2.80;1.47;;;11.80;99.90;;;;;;5069588;28;20177;-38
2022/11/04 00:49:50;;;;;;;1.33;1.23;;;11.80;99.90;;;;;;5072567;28;20426;-38
2022/11/04 00:52:16;;;;;;;2.63;1.60;;;11.80;99.90;;;;;;5079157;28;20200;-38
2022/11/04 00:54:42;;;;;;;2.17;1.30;;;11.80;99.90;;;;;;5072295;28;20222;-38
2022/11/04 00:57:09;;;;;;;3.00;1.53;;;11.80;99.90;;;;;;5089678;28;20230;-38
2022/11/04 00:59:35;;;;;;;1.50;1.30;;;11.80;99.90;;;;;;5089208;28;20775;-38
2022/11/04 01:02:00;;;;;;;1.77;1.37;;;11.80;99.90;;;;;;5089363;28;20434;-38
2022/11/04 01:04:26;;;;;;;6.80;2.10;;;11.80;99.90;;;;;;5070486;28;20431;-38
2022/11/04 01:06:52;;;;;;;1.90;1.47;;;11.80;99.90;;;;;;5069431;28;20196;-38
2022/11/04 01:09:18;;;;;;;1.80;1.30;;;11.80;99.90;;;;;;5071261;28;20192;-39
2022/11/04 01:11:43;;;;;;;3.33;1.60;;;11.80;99.90;;;;;;5073099;28;20215;-38
2022/11/04 01:14:10;;;;;;;1.50;1.40;;;11.80;99.90;;;;;;5073030;28;20922;-38
2022/11/04 01:16:36;;;;;;;2.00;1.80;;;11.70;99.90;;;;;;5073037;28;20742;-37
2022/11/04 01:19:02;;;;;;;1.80;1.70;;;11.70;99.90;;;;;;5072578;28;20463;-38
2022/11/04 01:21:28;;;;;;;2.87;1.90;;;11.70;99.90;;;;;;5072931;28;20411;-38
2022/11/04 01:23:54;;;;;;;1.90;1.70;;;11.70;99.90;;;;;;5072970;28;20553;-39
2022/11/04 01:26:22;;;;;;;3.77;2.00;;;11.70;99.90;;;;;;5093018;28;20192;-38
2022/11/04 01:28:50;;;;;;;3.97;2.30;;;11.70;99.90;;;;;;5092810;28;20272;-38
2022/11/04 01:31:20;;;;;;;2.20;2.00;;;11.70;99.90;;;;;;5092868;28;20414;-38
2022/11/04 01:33:46;;;;;;;3.00;2.00;;;11.70;99.90;;;;;;5091845;28;20421;-38
2022/11/04 01:36:12;;;;;;;4.20;2.00;;;11.70;99.90;;;;;;5092885;28;20418;-38
2022/11/04 01:38:38;;;;;;;3.07;2.13;;;11.70;99.90;;;;;;5092431;28;21164;-38
2022/11/04 01:41:05;;;;;;;3.10;1.90;;;11.80;99.90;;;;;;5092917;28;20183;-38
2022/11/04 01:43:50;;;;;;;4.50;2.10;;;11.80;99.90;;;;;;5092512;28;20419;-38
2022/11/04 01:46:31;;;;;;;2.83;2.50;;;11.80;99.90;;;;;;5092776;28;20411;-38
2022/11/04 01:49:29;;;;;;;3.10;2.30;;;11.80;99.90;;;;;;5091998;28;20923;-38
2022/11/04 01:52:07;;;;;;;2.87;2.50;;;11.70;99.90;;;;;;5092909;28;20919;-37
2022/11/04 01:54:34;;;;;;;3.27;2.80;;;11.70;99.90;;;;;;5092279;28;20460;-38
2022/11/04 01:57:01;;;;;;;3.43;2.40;;;11.70;99.90;;;;;;5092543;28;20504;-37
2022/11/04 01:59:32;;;;;;;2.97;2.67;;;11.70;99.90;;;;;;5091797;28;20857;-38
2022/11/04 02:01:57;;;;;;;3.07;2.60;;;11.70;99.90;;;;;;5092456;28;20414;-38
2022/11/04 02:04:26;;;;;;;3.80;2.67;;;11.70;99.90;;;;;;5090748;28;20407;-37
2022/11/04 02:07:05;;;;;;;3.60;2.90;;;11.70;99.90;;;;;;5092369;28;20192;-38
2022/11/04 02:09:33;;;;;;;3.60;2.83;;;11.70;99.90;;;;;;5091739;28;20453;-38
2022/11/04 02:14:45;;;;;;;3.23;2.93;;;11.70;99.90;;;;;;5091898;28;20454;-38
2022/11/04 02:17:39;;;;;;;5.87;2.97;;;11.70;99.90;;;;;;5092130;28;20422;-38
2022/11/04 02:20:05;;;;;;;6.30;2.47;;;11.60;99.90;;;;;;5055892;28;20468;-38
2022/11/04 02:22:58;;;;;;;5.50;2.83;;;11.60;99.90;;;;;;5091827;28;20406;-38
2022/11/04 02:26:11;;;;;;;3.30;2.60;;;11.60;99.90;;;;;;5091809;28;20192;-38
2022/11/04 02:29:14;;;;;;;3.53;2.27;;;11.60;99.90;;;;;;5048539;28;20432;-38
2022/11/04 02:31:52;;;;;;;4.43;2.50;;;11.60;99.90;;;;;;5048709;28;20455;-38
2022/11/04 02:34:42;;;;;;;5.23;2.50;;;11.50;99.90;;;;;;5084509;28;20427;-38
2022/11/04 02:37:12;;;;;;;3.00;2.53;;;11.60;99.90;;;;;;5091619;28;20446;-38
2022/11/04 02:39:50;;;;;;;4.17;2.40;;;11.50;99.90;;;;;;5091498;28;20402;-39
2022/11/04 02:42:30;;;;;;;4.50;2.50;;;11.60;99.90;;;;;;5091537;28;20414;-38
2022/11/04 02:45:13;;;;;;;4.47;2.87;;;11.50;99.90;;;;;;5091551;28;20414;-38
2022/11/04 02:47:47;;;;;;;3.50;2.50;;;11.50;99.90;;;;;;5091595;28;20410;-38
2022/11/04 02:50:28;;;;;;;5.37;2.40;;;11.50;99.90;;;;;;5091349;28;20440;-38
2022/11/04 02:53:11;;;;;;;5.33;3.40;;;11.50;99.90;;;;;;5091017;28;20800;-38
2022/11/04 02:55:42;;;;;;;5.13;2.40;;;11.40;99.90;;;;;;5091024;28;20418;-38
2022/11/04 02:58:14;;;;;;;6.40;2.00;;;11.50;99.90;;;;;;5089838;28;20495;-38
2022/11/04 03:00:42;;;;;;;3.40;2.20;;;11.50;99.90;;;;;;5090959;28;20421;-38
2022/11/04 03:03:37;;;;;;;3.67;2.50;;;11.50;99.90;;;;;;5090806;28;20410;-38
2022/11/04 03:06:05;;;;;;;2.47;1.77;;;11.50;99.90;;;;;;5086790;28;20490;-38
2022/11/04 03:08:51;;;;;;;4.53;2.30;;;11.50;99.90;;;;;;5089400;28;20877;-38
2022/11/04 03:11:21;;;;;;;2.43;2.23;;;11.50;99.90;;;;;;5091197;28;20423;-38
2022/11/04 03:14:09;;;;;;;3.53;1.93;;;11.50;99.90;;;;;;5090468;28;20418;-38
2022/11/04 03:16:39;;;;;;;4.23;2.10;;;11.50;99.90;;;;;;5090848;28;21187;-38
2022/11/04 03:19:08;;;;;;;2.87;2.13;;;11.50;99.90;;;;;;5090469;28;20560;-38
2022/11/04 03:21:38;;;;;;;2.77;2.07;;;11.50;99.90;;;;;;5091128;28;20423;-38
2022/11/04 03:24:05;;;;;;;3.37;2.20;;;11.50;99.90;;;;;;5090591;28;20822;-38
2022/11/04 03:26:57;;;;;;;2.57;2.13;;;11.50;99.90;;;;;;5090795;28;20414;-38
2022/11/04 03:29:36;;;;;;;6.10;1.80;;;11.40;99.90;;;;;;5090557;28;20425;-38
2022/11/04 03:32:22;;;;;;;3.63;2.40;;;11.40;99.90;;;;;;5089121;28;21069;-38
2022/11/04 03:34:48;;;;;;;3.50;1.80;;;11.30;99.90;;;;;;5089318;28;20471;-38
2022/11/04 03:37:14;;;;;;;5.80;1.90;;;11.40;99.90;;;;;;5090241;28;20426;-38
2022/11/04 03:39:39;;;;;;;3.00;1.73;;;11.30;99.90;;;;;;5090292;28;20413;-39
2022/11/04 03:42:22;;;;;;;2.43;1.60;;;11.30;99.90;;;;;;5090578;28;20783;-38
2022/11/04 03:44:50;;;;;;;3.17;1.70;;;11.30;99.90;;;;;;5090051;28;20263;-38
2022/11/04 03:47:18;;;;;;;4.97;2.07;;;11.30;99.90;;;;;;5089177;28;20411;-38
2022/11/04 03:49:46;;;;;;;6.00;2.73;;;11.30;99.90;;;;;;5089433;28;20925;-38
2022/11/04 03:52:12;;;;;;;3.83;1.93;;;11.30;99.90;;;;;;5090394;28;20411;-38
2022/11/04 03:54:38;;;;;;;3.93;1.60;;;11.20;99.90;;;;;;5090174;28;20476;-38
2022/11/04 03:57:41;;;;;;;5.00;1.90;;;11.20;99.90;;;;;;5090230;28;20839;-38
2022/11/04 04:00:09;;;;;;;3.93;1.83;;;11.20;99.90;;;;;;5089807;28;20809;-38
2022/11/04 04:02:56;;;;;;;5.53;2.17;;;11.10;99.90;;;;;;5089856;28;20426;-38
2022/11/04 04:05:45;;;;;;;3.53;2.20;;;11.00;99.90;;;;;;5090195;28;20441;-38
2022/11/04 04:08:48;;;;;;;5.83;1.73;;;10.90;99.90;;;;;;5079113;28;20415;-38
2022/11/04 04:11:40;;;;;;;3.70;2.07;;;11.00;99.90;;;;;;5090317;28;20410;-38
2022/11/04 04:14:40;;;;;;;2.20;1.50;;;11.00;99.90;;;;;;5085570;28;20426;-39
2022/11/04 04:17:35;;;;;;;5.80;1.80;;;11.00;99.90;;;;;;5088938;28;20465;-38
2022/11/04 04:20:13;;;;;;;3.40;1.60;;;11.00;99.90;;;;;;5080400;28;20462;-38
2022/11/04 04:22:53;;;;;;;5.33;2.33;;;11.00;99.90;;;;;;5089693;28;20426;-38
2022/11/04 04:28:06;;;;;;;4.77;1.67;;;11.00;99.90;;;;;;5089992;28;20403;-38
2022/11/04 04:30:32;;;;;;;3.73;2.10;;;11.00;99.90;;;;;;5089627;28;20471;-38
2022/11/04 04:33:06;;;;;;;2.60;1.80;;;11.00;99.90;;;;;;5088635;28;20414;-38
2022/11/04 04:35:42;;;;;;;3.20;1.60;;;11.00;99.90;;;;;;5089678;28;20440;-38
2022/11/04 04:46:38;;;;;;;4.00;1.93;;;10.80;99.90;;;;;;5093932;28;20985;-38
2022/11/04 04:49:08;;;;;;;9.37;1.57;;;10.80;99.90;;;;;;5093558;28;20483;-38
2022/11/04 04:51:39;;;;;;;2.73;1.43;;;10.80;99.90;;;;;;5093706;28;20422;-38
2022/11/04 04:54:04;;;;;;;5.70;2.10;;;10.70;99.90;;;;;;5093394;28;20831;-39
2022/11/04 04:56:30;;;;;;;8.10;2.23;;;10.80;99.90;;;;;;5093460;28;20453;-38
2022/11/04 04:58:55;;;;;;;3.77;2.10;;;10.90;99.90;;;;;;5093307;28;20216;-38
2022/11/04 05:01:21;;;;;;;8.03;2.00;;;10.90;99.90;;;;;;5093624;28;20226;-38
2022/11/04 05:03:47;;;;;;;6.27;2.10;;;11.00;99.90;;;;;;5091890;28;20172;-38
2022/11/04 05:06:12;;;;;;;2.57;1.40;;;11.00;99.90;;;;;;5093498;28;20200;-38
2022/11/04 05:08:38;;;;;;;3.33;1.90;;;10.90;99.90;;;;;;5092886;28;20172;-38
2022/11/04 05:11:04;;;;;;;5.40;1.90;;;10.90;99.90;;;;;;5093427;28;21005;-38
2022/11/04 05:13:29;;;;;;;4.30;1.47;;;10.90;99.90;;;;;;5092994;28;20836;-38
2022/11/04 05:16:07;;;;;;;2.23;1.40;;;10.80;99.90;;;;;;5093555;28;20189;-38
2022/11/04 05:18:33;;;;;;;4.13;1.90;;;10.80;99.90;;;;;;5092716;28;20231;-38
2022/11/04 05:21:05;;;;;;;4.77;1.60;;;10.70;99.90;;;;;;5093418;28;20587;-38
2022/11/04 05:23:31;;;;;;;6.07;1.20;;;10.70;99.90;;;;;;5092690;28;20411;-38
2022/11/04 05:25:57;;;;;;;7.63;1.60;;;10.70;99.90;;;;;;5092985;28;20422;-38
2022/11/04 05:28:23;;;;;;;4.20;2.57;;;10.60;99.90;;;;;;5091578;28;20215;-38
2022/11/04 05:30:49;;;;;;;3.07;1.27;;;10.70;99.90;;;;;;5093062;28;20972;-38
2022/11/04 05:33:15;;;;;;;2.20;1.30;;;10.60;99.90;;;;;;5091337;28;20175;-38
2022/11/04 05:35:40;;;;;;;5.57;1.67;;;10.60;99.90;;;;;;5092858;28;20191;-38
2022/11/04 05:38:06;;;;;;;5.93;1.53;;;10.60;99.90;;;;;;5092765;28;20204;-38
2022/11/04 05:40:32;;;;;;;5.40;1.60;;;10.60;99.90;;;;;;5091314;28;20185;-38
2022/11/04 05:42:58;;;;;;;2.03;1.30;;;10.50;99.90;;;;;;5084148;28;20188;-38
2022/11/04 05:45:25;;;;;;;5.03;1.87;;;10.50;99.90;;;;;;5092677;28;20580;-38
2022/11/04 05:47:58;;;;;;;2.77;1.40;;;10.50;99.90;;;;;;5092603;28;20410;-38
2022/11/04 05:50:24;;;;;;;3.10;1.30;;;10.50;99.90;;;;;;5084275;28;20444;-38
2022/11/04 05:52:50;;;;;;;5.47;1.57;;;10.50;99.90;;;;;;5091713;28;20456;-38
2022/11/04 05:55:16;;;;;;;2.43;1.50;;;10.50;99.90;;;;;;5091821;28;20434;-38
2022/11/04 05:57:41;;;;;;;2.90;1.20;;;10.60;99.90;;;;;;5084149;28;20208;-38
2022/11/04 06:00:09;;;;;;;5.17;1.60;;;10.60;99.90;;;;;;5090935;28;20799;-38
2022/11/04 06:02:34;;;;;;;5.63;3.10;;;10.60;99.90;;;;;;5092037;28;20188;-38
2022/11/04 06:05:00;;;;;;;7.53;1.57;;;10.50;99.90;;;;;;5090884;28;21087;-38
2022/11/04 06:07:26;;;;;;;6.50;1.97;;;10.50;99.90;;;;;;5092371;28;20201;-38
2022/11/04 06:09:51;;;;;;;5.87;1.50;;;10.50;99.90;;;;;;5086240;28;20192;-39
2022/11/04 06:12:17;;;;;;;4.83;1.50;;;10.50;99.90;;;;;;5092093;28;20189;-38
2022/11/04 06:14:43;;;;;;;5.33;2.00;;;10.50;99.90;;;;;;5091965;28;20180;-38
2022/11/04 06:17:16;;;;;;;5.60;1.67;;;10.50;99.90;;;;;;5084235;28;20191;-38
2022/11/04 06:19:42;;;;;;;4.40;1.80;;;10.50;99.90;;;;;;5091390;28;20189;-38
2022/11/04 06:22:10;;;;;;;4.60;1.37;;;10.50;99.90;;;;;;5092266;28;20422;-38
2022/11/04 06:24:36;;;;;;;3.50;1.33;;;10.50;99.90;;;;;;5091584;28;20196;-38
2022/11/04 06:27:02;;;;;;;4.50;1.97;;;10.50;99.90;;;;;;5091939;28;20495;-38
2022/11/04 06:29:28;;;;;;;2.83;1.57;;;10.50;99.90;;;;;;5090159;28;20187;-38
2022/11/04 06:31:53;;;;;;;5.20;1.50;;;10.60;99.90;;;;;;5091668;28;20415;-38
2022/11/04 06:34:19;;;;;;;1.73;1.37;;;10.60;99.90;;;;;;5089815;28;20667;-38
2022/11/04 06:36:44;;;;;;;5.40;1.40;;;10.60;99.90;;;;;;5089911;28;20181;-38
2022/11/04 06:39:10;;;;;;;5.70;1.80;;;10.60;99.90;;;;;;5084073;28;20224;-38
2022/11/04 06:41:36;;;;;;;5.23;1.70;;;10.60;99.90;;;;;;5089608;28;20177;-38
2022/11/04 06:44:01;;;;;;;9.00;1.93;;;10.60;99.90;;;;;;5091324;28;20184;-38
2022/11/04 06:46:33;;;;;;;6.10;1.97;;;10.60;99.90;;;;;;5090405;28;20220;-38
2022/11/04 06:48:59;;;;;;;3.23;1.40;;;10.60;99.90;;;;;;5091234;28;20637;-38
2022/11/04 06:51:25;;;;;;;7.57;1.70;;;10.60;99.90;;;;;;5091531;28;20407;-38
2022/11/04 06:53:50;;;;;;;5.57;1.43;;;10.60;99.90;;;;;;5091136;28;20230;-38
2022/11/04 06:56:16;;;;;;;2.90;1.47;;;10.60;99.90;;;;;;5091351;28;20418;-38
2022/11/04 06:58:42;;;;;;;4.30;2.60;;;10.60;99.90;;;;;;5090906;28;20208;-39
2022/11/04 07:01:07;;;;;;;4.97;1.30;;;10.60;99.90;;;;;;5091276;28;20188;-38
2022/11/04 07:03:33;;;;;;;5.10;1.77;;;10.60;99.90;;;;;;5090803;28;20185;-38
2022/11/04 07:06:05;;;;;;;5.20;1.60;;;10.60;99.90;;;;;;5090925;28;20245;-38
2022/11/04 07:08:30;;;;;;;4.43;1.20;;;10.50;99.90;;;;;;5090537;28;20267;-38
2022/11/04 07:10:56;;;;;;;4.53;1.50;;;10.50;99.90;;;;;;5091131;28;20490;-38
2022/11/04 07:13:21;;;;;;;3.17;1.50;;;10.50;99.90;;;;;;5090600;28;20184;-38
2022/11/04 07:15:47;;;;;;;5.67;1.83;;;10.50;99.90;;;;;;5091040;28;20182;-38
2022/11/04 07:18:13;;;;;;;4.43;1.43;;;10.60;99.90;;;;;;5087838;28;20239;-38
2022/11/04 07:20:39;;;;;;;6.10;1.40;;;10.60;99.90;;;;;;5090128;28;20268;-38
2022/11/04 07:23:04;;;;;;;3.07;1.30;;;10.60;99.90;;;;;;5089912;28;20176;-38
2022/11/04 07:25:30;;;;;;;6.17;2.43;;;10.70;99.90;;;;;;5090048;28;20426;-38
2022/11/04 07:27:56;;;;;;;2.37;1.63;;;10.70;99.90;;;;;;5090874;28;20642;-38
2022/11/04 07:30:21;;;;;;;7.83;1.70;;;10.70;99.90;;;;;;5090298;28;20180;-38
2022/11/04 07:32:47;;;;;;;4.30;1.17;;;10.70;99.90;;;;;;5088750;28;20199;-38
2022/11/04 07:35:13;;;;;;;4.50;1.63;;;10.80;99.90;;;;;;5090763;28;20263;-38
2022/11/04 07:37:39;;;;;;;2.40;1.60;;;10.90;99.90;;;;;;5089996;28;20542;-38
2022/11/04 07:40:05;;;;;;;6.43;1.63;;;10.90;99.90;;;;;;5087701;28;20414;-38
2022/11/04 07:42:31;;;;;;;2.50;1.50;;;10.90;99.90;;;;;;5089703;28;20706;-39
2022/11/04 07:44:57;;;;;;;3.27;1.43;;;10.90;99.90;;;;;;5089322;28;20506;-38
2022/11/04 07:47:22;;;;;;;5.60;2.07;;;10.90;99.90;;;;;;5100718;28;20184;-39
2022/11/04 07:49:48;;;;;;;3.57;1.70;;;10.80;99.90;;;;;;5099964;28;20202;-38
2022/11/04 07:52:14;;;;;;;2.07;1.80;;;10.80;99.90;;;;;;5099335;28;20175;-38
2022/11/04 07:54:39;;;;;;;4.77;2.13;;;10.80;99.90;;;;;;5096817;28;20187;-38
2022/11/04 07:57:05;;;;;;;1.90;1.50;;;10.80;99.90;;;;;;5096064;28;20502;-38
2022/11/04 07:59:32;;;;;;;5.33;2.10;;;10.80;99.90;;;;;;5092551;28;20295;-38
2022/11/04 08:01:58;;;;;;;4.97;2.03;;;10.80;99.90;;;;;;5095940;28;20184;-38
2022/11/04 08:04:23;;;;;;;2.87;2.13;;;10.90;99.90;;;;;;5101388;28;20498;-38
2022/11/04 08:06:49;;;;;;;4.17;1.80;;;10.90;99.90;;;;;;5111059;28;20714;-38
2022/11/04 08:09:15;;;;;;;3.07;1.77;;;10.80;99.90;;;;;;5110232;28;20221;-38
2022/11/04 08:11:40;;;;;;;3.83;1.87;;;10.90;99.90;;;;;;5093430;27;20192;-38
2022/11/04 08:14:07;;;;;;;3.60;1.50;;;11.00;99.90;;;;;;5089939;28;20192;-39
2022/11/04 08:16:33;;;;;;;3.60;2.03;;;11.00;99.90;;;;;;5089554;28;20196;-38
2022/11/04 08:19:00;;;;;;;2.50;1.83;;;11.00;99.90;;;;;;5088318;28;20804;-38
2022/11/04 08:21:30;;;;;;;5.50;2.73;;;11.10;99.90;;;;;;5090247;28;20183;-38
2022/11/04 08:23:55;;;;;;;4.87;1.63;;;11.20;99.90;;;;;;5089596;28;20422;-38
2022/11/04 08:26:22;;;;;;;6.10;2.30;;;11.20;99.90;;;;;;5090114;28;20421;-38
2022/11/04 08:28:49;;;;;;;6.37;2.00;;;11.30;99.90;;;;;;5089224;28;20184;-38
2022/11/04 08:31:16;;;;;;;6.87;1.80;;;11.30;99.90;;;;;;5095163;28;21000;-38
2022/11/04 08:33:43;;;;;;;3.50;1.83;;;11.30;99.90;;;;;;5088697;28;20415;-38
2022/11/04 08:36:14;;;;;;;3.73;1.90;;;11.20;99.90;;;;;;5090071;28;20418;-38
2022/11/04 08:38:39;;;;;;;6.40;2.47;;;11.30;99.90;;;;;;5089309;28;20516;-38
2022/11/04 08:41:07;;;;;;;4.20;1.93;;;11.30;99.90;;;;;;5095285;28;20877;-38
2022/11/04 08:43:33;;;;;;;3.70;1.93;;;11.30;99.90;;;;;;5099743;28;20277;-38
2022/11/04 08:46:00;;;;;;;5.30;2.77;;;11.40;99.90;;;;;;5085244;28;20985;-38
2022/11/04 08:48:26;;;;;;;5.37;2.60;;;11.40;99.90;;;;;;5079103;28;20431;-38
2022/11/04 08:50:54;;;;;;;5.23;2.37;;;11.50;99.90;;;;;;5084667;28;20845;-38
2022/11/04 08:53:20;;;;;;;9.20;3.47;;;11.60;99.90;;;;;;5074527;28;20517;-39
2022/11/04 08:55:46;;;;;;;5.10;1.90;;;11.70;99.90;;;;;;5067821;28;20526;-38
2022/11/04 08:58:12;;;;;;;4.00;1.83;;;11.70;99.90;;;;;;5068249;28;20203;-39
2022/11/04 09:00:37;;;;;;;3.87;1.63;;;11.80;99.90;;;;;;5067621;28;20415;-38
2022/11/04 09:03:03;;;;;;;3.70;1.97;;;11.80;99.90;;;;;;5069815;28;20181;-38
2022/11/04 09:05:29;;;;;;;5.30;2.00;;;11.80;99.90;;;;;;5089083;28;20660;-38
2022/11/04 09:07:55;;;;;;;6.10;2.40;;;11.80;99.90;;;;;;5079681;28;20177;-38
2022/11/04 09:10:21;;;;;;;5.90;2.07;;;11.80;99.90;;;;;;5068923;28;20426;-38
2022/11/04 09:12:47;;;;;;;4.47;1.80;;;11.90;99.90;;;;;;5068970;28;20506;-38
2022/11/04 09:15:12;;;;;;;3.87;1.80;;;11.90;99.90;;;;;;5068114;28;20185;-38
2022/11/04 09:17:39;;;;;;;6.93;3.73;;;11.90;99.90;;;;;;5062276;28;20204;-38
2022/11/04 09:20:05;;;;;;;4.60;2.30;;;12.00;99.90;;;;;;5067960;28;20169;-38
2022/11/04 09:22:31;;;;;;;4.17;2.10;;;12.10;99.90;;;;;;5068074;28;20411;-38
2022/11/04 09:24:57;;;;;;;4.00;1.53;;;12.10;99.90;;;;;;5078151;28;20426;-38
2022/11/04 09:27:22;;;;;;;4.67;2.13;;;12.30;99.90;;;;;;5089629;28;20815;-38
2022/11/04 09:29:48;;;;;;;6.67;2.03;;;12.50;99.90;;;;;;5090795;28;20173;-38
2022/11/04 09:32:14;;;;;;;3.40;2.03;;;12.70;99.90;;;;;;5090987;28;20177;-38
2022/11/04 09:34:40;;;;;;;3.30;1.60;;;12.80;99.90;;;;;;5091884;28;20188;-38
2022/11/04 09:37:05;;;;;;;4.20;1.97;;;12.80;99.90;;;;;;5092547;28;20496;-38
2022/11/04 09:39:31;;;;;;;5.50;2.37;;;12.80;99.90;;;;;;5091671;28;20208;-38
2022/11/04 09:42:22;;;;;;;3.20;1.97;;;12.70;99.90;;;;;;5091964;28;20229;-38
2022/11/04 09:44:55;;;;;;;4.33;1.80;;;12.70;99.90;;;;;;5049857;28;20184;-38
2022/11/04 09:47:22;;;;;;;3.30;1.43;;;12.60;99.90;;;;;;5092189;28;20468;-38
2022/11/04 09:49:52;;;;;;;3.20;1.83;;;12.60;99.90;;;;;;5091673;28;20419;-38
2022/11/04 09:52:31;;;;;;;3.60;1.90;;;12.50;99.90;;;;;;5091651;28;20422;-38
2022/11/04 09:55:13;;;;;;;2.17;1.40;;;12.50;99.90;;;;;;5091856;28;20422;-38
2022/11/04 09:57:38;;;;;;;4.07;1.70;;;12.50;99.90;;;;;;5091741;28;20487;-38
2022/11/04 10:00:06;;;;;;;4.53;1.80;;;12.60;99.90;;;;;;5091628;28;20499;-38
2022/11/04 10:02:38;;;;;;;10.23;2.80;;;12.60;99.90;;;;;;5091263;28;20184;-38
2022/11/04 10:05:18;;;;;;;3.07;1.37;;;12.70;99.90;;;;;;5092054;28;20483;-38
2022/11/04 10:08:08;;;;;;;4.50;1.73;;;12.70;99.90;;;;;;5091071;28;20414;-39
2022/11/04 10:10:55;;;;;;;8.47;2.07;;;12.70;99.90;;;;;;5092184;28;20965;-38
2022/11/04 10:14:09;;;;;;;3.60;1.60;;;12.70;99.90;;;;;;5091992;28;20418;-39
2022/11/04 10:17:27;;;;;;;4.00;1.70;;;12.80;99.90;;;;;;5056231;28;20713;-38
2022/11/04 10:20:14;;;;;;;3.30;1.50;;;12.90;99.90;;;;;;5045719;28;20434;-38
2022/11/04 10:22:58;;;;;;;9.00;2.40;;;13.10;99.90;;;;;;5091843;28;20407;-38
2022/11/04 10:25:48;;;;;;;8.80;2.40;;;13.30;99.90;;;;;;5090283;28;21070;-38
2022/11/04 10:28:19;;;;;;;2.97;1.60;;;13.40;99.90;;;;;;5071532;28;20426;-38
2022/11/04 10:30:48;;;;;;;5.87;1.43;;;13.50;99.90;;;;;;5091599;28;20530;-39
2022/11/04 10:33:39;;;;;;;4.03;1.50;;;13.60;99.90;;;;;;5090105;28;20479;-38
2022/11/04 10:36:07;;;;;;;2.90;1.60;;;13.60;99.90;;;;;;5091443;28;20414;-38
2022/11/04 10:38:54;;;;;;;4.87;1.83;;;13.60;99.90;;;;;;5091415;28;20452;-38
2022/11/04 10:41:25;;;;;;;5.63;2.00;;;13.70;99.90;;;;;;5091388;28;20426;-39
2022/11/04 10:44:00;;;;;;;4.57;1.50;;;13.70;99.90;;;;;;5091510;28;20415;-39
2022/11/04 10:46:43;;;;;;;2.23;1.40;;;13.80;99.90;;;;;;5091265;28;20406;-38
2022/11/04 10:49:30;;;;;;;3.67;1.50;;;13.90;99.90;;;;;;5089880;28;20428;-38
2022/11/04 10:51:57;;;;;;;4.00;1.33;;;14.00;99.90;;;;;;5090263;28;20414;-38
2022/11/04 10:54:25;;;;;;;2.20;1.40;;;14.00;99.90;;;;;;5091247;28;20964;-38
2022/11/04 10:56:53;;;;;;;5.53;2.20;;;14.10;99.90;;;;;;5091270;28;20501;-38
2022/11/04 10:59:47;;;;;;;2.97;1.70;;;14.10;99.90;;;;;;5090950;28;21002;-38
2022/11/04 11:02:13;;;;;;;1.77;1.20;;;14.20;99.90;;;;;;5091420;28;20414;-38
2022/11/04 11:04:44;;;;;;;7.37;2.07;;;14.30;99.90;;;;;;5090926;28;20403;-38
2022/11/04 11:07:12;;;;;;;2.70;1.83;;;14.30;99.90;;;;;;5091123;28;20195;-38
2022/11/04 11:09:40;;;;;;;3.50;1.63;;;14.30;99.90;;;;;;5090830;28;20830;-39
2022/11/04 11:12:12;;;;;;;3.67;1.20;;;14.30;99.90;;;;;;5091272;28;20414;-39
2022/11/04 11:14:39;;;;;;;3.83;1.70;;;14.30;99.90;;;;;;5090759;28;20418;-38
2022/11/04 11:17:14;;;;;;;5.17;1.57;;;14.30;99.90;;;;;;5091117;28;20923;-38
2022/11/04 11:19:59;;;;;;;3.03;1.30;;;14.40;99.90;;;;;;5090182;28;20457;-38
2022/11/04 11:22:39;;;;;;;5.40;1.57;;;14.40;99.90;;;;;;5089497;28;20427;-38
2022/11/04 11:25:29;;;;;;;3.10;1.13;;;14.30;99.90;;;;;;5090969;28;21339;-38
2022/11/04 11:28:24;;;;;;;4.20;1.37;;;14.20;99.90;;;;;;5090679;28;20817;-38
2022/11/04 11:30:51;;;;;;;4.63;1.90;;;14.10;99.90;;;;;;5081962;28;20426;-38
2022/11/04 11:33:16;;;;;;;2.80;1.57;;;14.10;99.90;;;;;;5088933;28;20765;-38
2022/11/04 11:35:50;;;;;;;4.13;1.37;;;14.10;99.90;;;;;;5090842;28;20418;-38
2022/11/04 11:38:17;;;;;;;2.00;1.20;;;14.00;99.90;;;;;;5089147;28;20208;-38
2022/11/04 11:40:44;;;;;;;3.87;1.47;;;13.90;99.90;;;;;;5087633;28;20414;-38
2022/11/04 11:43:25;;;;;;;2.90;1.33;;;13.90;99.90;;;;;;5090054;28;20423;-39
2022/11/04 11:45:53;;;;;;;4.43;1.43;;;13.90;99.90;;;;;;5089188;28;21097;-39
2022/11/04 11:48:32;;;;;;;6.33;1.80;;;13.80;99.90;;;;;;5090287;28;20418;-39
2022/11/04 11:50:59;;;;;;;5.40;1.70;;;13.80;99.90;;;;;;5090342;28;20420;-39
2022/11/04 11:53:28;;;;;;;6.10;1.93;;;13.60;99.90;;;;;;5089442;28;21003;-38
2022/11/04 11:56:16;;;;;;;4.27;1.83;;;13.60;99.90;;;;;;5090512;28;20418;-38
2022/11/04 11:58:52;;;;;;;2.93;1.87;;;13.60;99.90;;;;;;5089794;28;20458;-38
2022/11/04 12:01:33;;;;;;;4.00;1.87;;;13.60;99.90;;;;;;5090134;28;20426;-38
2022/11/04 12:03:59;;;;;;;2.90;1.60;;;13.60;99.90;;;;;;5089998;28;20485;-39
2022/11/04 12:06:53;;;;;;;4.53;1.43;;;13.50;99.90;;;;;;5089983;28;21028;-38
2022/11/04 12:09:29;;;;;;;2.37;1.57;;;13.40;99.90;;;;;;5089923;28;20402;-39
2022/11/04 12:11:58;;;;;;;7.53;2.07;;;13.40;99.90;;;;;;5088731;28;20414;-41
2022/11/04 12:14:48;;;;;;;2.97;1.47;;;13.40;99.90;;;;;;5089907;28;20409;-38
2022/11/04 12:17:32;;;;;;;3.73;1.50;;;13.40;99.90;;;;;;5090062;28;20407;-39
2022/11/04 12:20:04;;;;;;;9.00;3.10;;;13.40;99.90;;;;;;5089660;28;20414;-38
2022/11/04 12:22:41;;;;;;;3.50;1.27;;;13.40;99.90;;;;;;5089950;28;20815;-38
2022/11/04 12:25:21;;;;;;;2.57;1.47;;;13.40;99.90;;;;;;5090025;28;20487;-38
2022/11/04 12:28:16;;;;;;;3.40;1.60;;;13.40;99.90;;;;;;5089990;28;20556;-38
2022/11/04 12:30:50;;;;;;;3.30;1.57;;;13.30;99.90;;;;;;5074179;28;20521;-39
2022/11/04 12:33:31;;;;;;;3.73;1.60;;;13.30;99.90;;;;;;5088104;28;20414;-38
2022/11/04 12:36:06;;;;;;;3.40;1.70;;;13.30;99.90;;;;;;5090069;28;20969;-38
2022/11/04 12:38:57;;;;;;;4.17;1.70;;;13.30;99.90;;;;;;5089375;28;20454;-38
2022/11/04 12:41:48;;;;;;;2.50;1.53;;;13.40;99.90;;;;;;5089990;28;20448;-38
2022/11/04 12:44:35;;;;;;;3.63;1.63;;;13.40;99.90;;;;;;5089588;28;20441;-38
2022/11/04 12:47:22;;;;;;;2.90;1.60;;;13.50;99.90;;;;;;5089853;28;20406;-38
2022/11/04 12:49:48;;;;;;;3.90;1.90;;;13.50;99.90;;;;;;5089374;28;20493;-39
2022/11/04 12:52:36;;;;;;;4.70;1.80;;;13.50;99.90;;;;;;5088707;28;20430;-39
2022/11/04 12:55:27;;;;;;;4.57;1.83;;;13.50;99.90;;;;;;5089231;28;20791;-38
2022/11/04 12:58:13;;;;;;;3.63;1.97;;;13.50;99.90;;;;;;5089851;28;20556;-39
2022/11/04 13:00:41;;;;;;;3.00;2.13;;;13.60;99.90;;;;;;5089039;28;20418;-39
2022/11/04 13:03:17;;;;;;;4.13;1.47;;;13.60;99.90;;;;;;5090082;28;20415;-39
2022/11/04 13:06:00;;;;;;;6.53;1.70;;;13.60;99.90;;;;;;5093391;28;20438;-39
2022/11/04 13:08:34;;;;;;;6.50;1.83;;;13.50;99.90;;;;;;5092028;28;20406;-39
2022/11/04 13:11:04;;;;;;;3.73;1.50;;;13.50;99.90;;;;;;5092159;28;20479;-39
2022/11/04 13:13:37;;;;;;;3.23;1.40;;;13.40;99.90;;;;;;5093194;28;20406;-38
2022/11/04 13:16:09;;;;;;;4.10;1.57;;;13.40;99.90;;;;;;5093534;28;20813;-38
2022/11/04 13:18:38;;;;;;;2.50;1.37;;;13.40;99.90;;;;;;5092751;28;20461;-39
2022/11/04 13:21:12;;;;;;;2.20;1.63;;;13.40;99.90;;;;;;5093383;28;20402;-39
2022/11/04 13:24:03;;;;;;;4.63;2.07;;;13.40;99.90;;;;;;5092812;28;20989;-38
2022/11/04 13:26:29;;;;;;;4.63;1.73;;;13.40;99.90;;;;;;5073139;28;20938;-38
2022/11/04 13:29:14;;;;;;;4.67;2.23;;;13.40;99.90;;;;;;5072222;28;20414;-39
2022/11/04 13:31:53;;;;;;;2.23;2.03;;;13.50;99.90;;;;;;5073026;28;20929;-39
2022/11/04 13:35:00;;;;;;;3.47;2.10;;;13.50;99.90;;;;;;5069782;28;20414;-38
2022/11/04 13:37:28;;;;;;;4.23;2.00;;;13.60;99.90;;;;;;5072882;28;20468;-39
2022/11/04 13:40:13;;;;;;;2.60;1.73;;;13.60;99.90;;;;;;5077147;28;20419;-38
2022/11/04 13:45:51;;;;;;;3.90;1.57;;;13.60;99.90;;;;;;5092801;28;20405;-39
2022/11/04 13:48:21;;;;;;;4.67;1.50;;;13.60;99.90;;;;;;5092930;28;20505;-39